KBFI/BFI METAR and TAF weather

Enter ICAO airport designator
Station Type Date Time Source
KBFI METAR 2022/05/24 11:53 UTC NOAA

KBFI 241153Z AUTO 00000KT 10SM OVC025 12/08 A3015 RMK AO2 SLP207 T01170083 10150 20111 57003


Station Type Date Time Source
KBFI Decoded METAR 2022/05/24 11:53 UTC NOAA

SEATTLE BOEING FIELD, WA, United States (KBFI) 47-33N 122-19W 4M
May 24, 2022 - 07:53 AM EDT / 2022.05.24 1153 UTC
Wind: Calm:0
Visibility: 10 mile(s):0
Sky conditions: overcast
Temperature: 53.1 F (11.7 C)
Dew Point: 46.9 F (8.3 C)
Relative Humidity: 79%
Pressure (altimeter): 30.15 in. Hg (1020 hPa)
Pressure tendency: 0.01 inches (0.3 hPa) lower than three hours ago
ob: KBFI 241153Z AUTO 00000KT 10SM OVC025 12/08 A3015 RMK AO2 SLP207 T01170083 10150 20111 57003
cycle: 12

Station Type Date Time Source
KBFI TAF 2022/05/24 12:36 UTC NOAA

TAF KBFI 241134Z 2412/2512 VRB03KT P6SM OVC025
FM241700 18006KT P6SM SCT025 BKN040 OVC200
FM242000 18006KT P6SM BKN050 OVC200
FM251100 18006KT P6SM OVC025

Example: see airport list